Terminal Aerodrome Forecast
Issued by NWS

Home | Current Version | Previous Version | Text Only | Print | Product List | Glossary On
Versions: 1 2 3 4 5 6 7 8 9 10 11 12 13 14 15 16 17 18 19 20 21 22 23 24 25 26
755
FTUS43 KMQT 271134
TAFCMX
TAF
KCMX 271134Z 2712/2812 15003KT 1/4SM FG BKN002
     FM271300 15004KT 3/4SM BR BKN008
     FM271400 13004KT 1 1/2SM BR SCT010 OVC080
     FM272100 10008KT P6SM VCSH OVC110
     FM280100 10009KT 4SM BR OVC040
     FM280500 10007KT 1SM BR OVC003=

USA.gov is the U.S. government's official web portal to all federal, state and local government web resources and services.